sensor_id;sensor_type;location;lat;lon;timestamp;pressure;altitude;pressure_sealevel;temperature;humidity
63663;BME280;49815;51.618;0.336;2023-02-28T00:00:13;102516.98;;;-3.13;68.57
63663;BME280;49815;51.618;0.336;2023-02-28T00:02:37;102512.78;;;-2.52;67.60
63663;BME280;49815;51.618;0.336;2023-02-28T00:05:03;102516.92;;;-3.00;68.89
63663;BME280;49815;51.618;0.336;2023-02-28T00:07:29;102512.73;;;-2.58;69.62
63663;BME280;49815;51.618;0.336;2023-02-28T00:09:54;102512.32;;;-3.10;69.73
63663;BME280;49815;51.618;0.336;2023-02-28T00:12:20;102513.03;;;-3.16;70.15
63663;BME280;49815;51.618;0.336;2023-02-28T00:14:46;102516.08;;;-3.22;70.36
63663;BME280;49815;51.618;0.336;2023-02-28T00:17:11;102521.70;;;-2.93;69.56
63663;BME280;49815;51.618;0.336;2023-02-28T00:19:37;102524.13;;;-3.13;70.27
63663;BME280;49815;51.618;0.336;2023-02-28T00:22:02;102525.19;;;-3.19;70.65
63663;BME280;49815;51.618;0.336;2023-02-28T00:24:28;102520.45;;;-2.90;69.55
63663;BME280;49815;51.618;0.336;2023-02-28T00:26:53;102525.17;;;-2.47;70.07
63663;BME280;49815;51.618;0.336;2023-02-28T00:29:18;102526.74;;;-3.25;70.70
63663;BME280;49815;51.618;0.336;2023-02-28T00:31:44;102523.92;;;-3.23;71.77
63663;BME280;49815;51.618;0.336;2023-02-28T00:34:09;102520.74;;;-3.16;71.94
63663;BME280;49815;51.618;0.336;2023-02-28T00:36:34;102520.78;;;-2.70;70.79
63663;BME280;49815;51.618;0.336;2023-02-28T00:38:59;102523.65;;;-2.79;71.01
63663;BME280;49815;51.618;0.336;2023-02-28T00:41:24;102520.67;;;-2.98;69.83
63663;BME280;49815;51.618;0.336;2023-02-28T00:43:50;102520.37;;;-2.62;70.37
63663;BME280;49815;51.618;0.336;2023-02-28T00:46:15;102516.84;;;-3.04;71.02
63663;BME280;49815;51.618;0.336;2023-02-28T00:48:41;102519.19;;;-2.06;68.55
63663;BME280;49815;51.618;0.336;2023-02-28T00:51:06;102516.76;;;-2.12;66.56
63663;BME280;49815;51.618;0.336;2023-02-28T00:53:31;102518.45;;;-1.97;67.62
63663;BME280;49815;51.618;0.336;2023-02-28T00:55:57;102519.92;;;-3.77;71.89
63663;BME280;49815;51.618;0.336;2023-02-28T00:58:22;102517.16;;;-3.18;69.95
63663;BME280;49815;51.618;0.336;2023-02-28T01:00:48;102512.99;;;-2.86;69.37
63663;BME280;49815;51.618;0.336;2023-02-28T01:03:13;102515.73;;;-3.10;70.53
63663;BME280;49815;51.618;0.336;2023-02-28T01:05:38;102512.10;;;-2.39;68.39
63663;BME280;49815;51.618;0.336;2023-02-28T01:08:04;102513.77;;;-1.97;66.03
63663;BME280;49815;51.618;0.336;2023-02-28T01:10:30;102517.34;;;-2.24;67.22
63663;BME280;49815;51.618;0.336;2023-02-28T01:12:55;102518.69;;;-2.84;68.20
63663;BME280;49815;51.618;0.336;2023-02-28T01:15:21;102519.38;;;-3.14;68.25
63663;BME280;49815;51.618;0.336;2023-02-28T01:17:46;102519.31;;;-2.87;70.97
63663;BME280;49815;51.618;0.336;2023-02-28T01:20:12;102518.45;;;-3.63;71.63
63663;BME280;49815;51.618;0.336;2023-02-28T01:22:37;102521.80;;;-2.94;70.43
63663;BME280;49815;51.618;0.336;2023-02-28T01:25:03;102519.76;;;-3.15;70.16
63663;BME280;49815;51.618;0.336;2023-02-28T01:27:28;102519.62;;;-3.45;70.97
63663;BME280;49815;51.618;0.336;2023-02-28T01:29:54;102525.00;;;-3.64;71.75
63663;BME280;49815;51.618;0.336;2023-02-28T01:32:19;102521.26;;;-2.35;68.77
63663;BME280;49815;51.618;0.336;2023-02-28T01:34:45;102518.65;;;-3.02;70.95
63663;BME280;49815;51.618;0.336;2023-02-28T01:37:10;102521.81;;;-2.57;69.51
63663;BME280;49815;51.618;0.336;2023-02-28T01:39:36;102514.43;;;-1.83;67.72
63663;BME280;49815;51.618;0.336;2023-02-28T01:42:02;102513.62;;;-1.60;66.28
63663;BME280;49815;51.618;0.336;2023-02-28T01:46:53;102513.74;;;-1.68;67.91
63663;BME280;49815;51.618;0.336;2023-02-28T01:49:18;102511.87;;;-2.80;69.43
63663;BME280;49815;51.618;0.336;2023-02-28T01:51:46;102513.37;;;-2.92;69.96
63663;BME280;49815;51.618;0.336;2023-02-28T01:54:11;102519.04;;;-3.34;71.85
63663;BME280;49815;51.618;0.336;2023-02-28T01:56:36;102522.74;;;-2.62;70.79
63663;BME280;49815;51.618;0.336;2023-02-28T01:59:00;102525.23;;;-3.48;73.41
63663;BME280;49815;51.618;0.336;2023-02-28T02:01:27;102523.62;;;-3.13;71.76
63663;BME280;49815;51.618;0.336;2023-02-28T02:03:53;102527.97;;;-2.81;72.51
63663;BME280;49815;51.618;0.336;2023-02-28T02:06:16;102524.63;;;-2.95;71.97
63663;BME280;49815;51.618;0.336;2023-02-28T02:08:42;102527.78;;;-2.45;70.33
63663;BME280;49815;51.618;0.336;2023-02-28T02:11:10;102522.56;;;-2.72;71.85
63663;BME280;49815;51.618;0.336;2023-02-28T02:13:45;102525.44;;;-2.95;71.54
63663;BME280;49815;51.618;0.336;2023-02-28T02:16:07;102527.51;;;-3.42;74.27
63663;BME280;49815;51.618;0.336;2023-02-28T02:18:30;102521.84;;;-2.59;72.78
63663;BME280;49815;51.618;0.336;2023-02-28T02:21:07;102519.43;;;-3.06;72.59
63663;BME280;49815;51.618;0.336;2023-02-28T02:23:32;102513.36;;;-2.66;71.82
63663;BME280;49815;51.618;0.336;2023-02-28T02:25:43;102512.91;;;-2.15;69.67
63663;BME280;49815;51.618;0.336;2023-02-28T02:28:20;102512.93;;;-2.59;69.04
63663;BME280;49815;51.618;0.336;2023-02-28T02:30:44;102511.99;;;-2.77;69.20
63663;BME280;49815;51.618;0.336;2023-02-28T02:33:10;102519.83;;;-2.85;69.83
63663;BME280;49815;51.618;0.336;2023-02-28T02:35:25;102512.71;;;-3.07;71.94
63663;BME280;49815;51.618;0.336;2023-02-28T02:37:51;102514.10;;;-2.53;70.49
63663;BME280;49815;51.618;0.336;2023-02-28T02:40:14;102517.36;;;-2.02;67.50
63663;BME280;49815;51.618;0.336;2023-02-28T02:42:40;102529.05;;;-3.63;71.18
63663;BME280;49815;51.618;0.336;2023-02-28T02:45:04;102526.44;;;-3.60;72.01
63663;BME280;49815;51.618;0.336;2023-02-28T02:47:30;102522.57;;;-2.45;68.68
63663;BME280;49815;51.618;0.336;2023-02-28T02:49:55;102525.05;;;-4.04;71.89
63663;BME280;49815;51.618;0.336;2023-02-28T02:52:22;102527.55;;;-4.09;72.34
63663;BME280;49815;51.618;0.336;2023-02-28T02:54:45;102524.09;;;-3.46;71.46
63663;BME280;49815;51.618;0.336;2023-02-28T02:57:13;102523.03;;;-3.70;72.82
63663;BME280;49815;51.618;0.336;2023-02-28T02:59:35;102521.15;;;-4.00;72.23
63663;BME280;49815;51.618;0.336;2023-02-28T03:02:01;102517.49;;;-3.06;70.42
63663;BME280;49815;51.618;0.336;2023-02-28T03:04:28;102519.31;;;-2.87;69.18
63663;BME280;49815;51.618;0.336;2023-02-28T03:06:51;102519.25;;;-3.82;70.63
63663;BME280;49815;51.618;0.336;2023-02-28T03:09:16;102515.89;;;-3.62;72.11
63663;BME280;49815;51.618;0.336;2023-02-28T03:11:42;102523.02;;;-4.09;73.97
63663;BME280;49815;51.618;0.336;2023-02-28T03:14:17;102518.13;;;-4.01;73.29
63663;BME280;49815;51.618;0.336;2023-02-28T03:16:49;102520.80;;;-3.92;72.72
63663;BME280;49815;51.618;0.336;2023-02-28T03:19:08;102526.11;;;-4.57;74.04
63663;BME280;49815;51.618;0.336;2023-02-28T03:21:28;102528.64;;;-4.28;74.37
63663;BME280;49815;51.618;0.336;2023-02-28T03:23:56;102528.89;;;-3.55;73.21
63663;BME280;49815;51.618;0.336;2023-02-28T03:26:20;102531.95;;;-4.48;74.50
63663;BME280;49815;51.618;0.336;2023-02-28T03:28:51;102530.47;;;-3.97;73.19
63663;BME280;49815;51.618;0.336;2023-02-28T03:31:12;102524.81;;;-3.42;71.89
63663;BME280;49815;51.618;0.336;2023-02-28T03:33:37;102527.62;;;-3.40;71.50
63663;BME280;49815;51.618;0.336;2023-02-28T03:36:02;102526.20;;;-3.58;71.73
63663;BME280;49815;51.618;0.336;2023-02-28T03:38:29;102525.32;;;-3.67;71.32
63663;BME280;49815;51.618;0.336;2023-02-28T03:40:53;102524.06;;;-2.65;70.62
63663;BME280;49815;51.618;0.336;2023-02-28T03:43:20;102521.96;;;-3.92;71.13
63663;BME280;49815;51.618;0.336;2023-02-28T03:45:42;102519.03;;;-2.05;67.03
63663;BME280;49815;51.618;0.336;2023-02-28T03:48:12;102516.65;;;-3.12;68.44
63663;BME280;49815;51.618;0.336;2023-02-28T03:50:36;102510.04;;;-1.93;64.99
63663;BME280;49815;51.618;0.336;2023-02-28T03:53:04;102517.48;;;-3.93;68.57
63663;BME280;49815;51.618;0.336;2023-02-28T03:55:24;102522.97;;;-3.71;71.74
63663;BME280;49815;51.618;0.336;2023-02-28T03:57:56;102525.93;;;-3.38;70.55
63663;BME280;49815;51.618;0.336;2023-02-28T04:00:17;102528.07;;;-4.03;71.78
63663;BME280;49815;51.618;0.336;2023-02-28T04:02:41;102521.93;;;-3.78;72.46
63663;BME280;49815;51.618;0.336;2023-02-28T04:05:08;102529.28;;;-4.40;72.37
63663;BME280;49815;51.618;0.336;2023-02-28T04:07:34;102531.36;;;-4.22;71.87
63663;BME280;49815;51.618;0.336;2023-02-28T04:09:59;102528.43;;;-3.87;72.32
63663;BME280;49815;51.618;0.336;2023-02-28T04:12:24;102525.42;;;-2.13;66.20
63663;BME280;49815;51.618;0.336;2023-02-28T04:14:49;102526.60;;;-3.27;68.43
63663;BME280;49815;51.618;0.336;2023-02-28T04:17:15;102524.99;;;-3.18;67.57
63663;BME280;49815;51.618;0.336;2023-02-28T04:19:41;102530.92;;;-3.72;68.33
63663;BME280;49815;51.618;0.336;2023-02-28T04:22:08;102531.03;;;-3.46;67.83
63663;BME280;49815;51.618;0.336;2023-02-28T04:24:31;102533.15;;;-3.27;68.17
63663;BME280;49815;51.618;0.336;2023-02-28T04:26:57;102538.78;;;-4.16;70.18
63663;BME280;49815;51.618;0.336;2023-02-28T04:29:24;102542.83;;;-3.60;69.49
63663;BME280;49815;51.618;0.336;2023-02-28T04:31:47;102539.81;;;-4.07;70.39
63663;BME280;49815;51.618;0.336;2023-02-28T04:34:13;102539.74;;;-2.65;67.15
63663;BME280;49815;51.618;0.336;2023-02-28T04:36:38;102542.27;;;-3.64;68.79
63663;BME280;49815;51.618;0.336;2023-02-28T04:39:03;102541.78;;;-3.70;68.89
63663;BME280;49815;51.618;0.336;2023-02-28T04:41:30;102542.77;;;-3.78;69.43
63663;BME280;49815;51.618;0.336;2023-02-28T04:43:55;102546.09;;;-3.49;68.94
63663;BME280;49815;51.618;0.336;2023-02-28T04:46:21;102544.71;;;-3.08;68.37
63663;BME280;49815;51.618;0.336;2023-02-28T04:48:46;102547.84;;;-4.79;71.49
63663;BME280;49815;51.618;0.336;2023-02-28T04:51:13;102544.22;;;-3.69;69.21
63663;BME280;49815;51.618;0.336;2023-02-28T04:53:37;102545.95;;;-4.38;72.00
63663;BME280;49815;51.618;0.336;2023-02-28T04:56:02;102545.41;;;-4.45;73.38
63663;BME280;49815;51.618;0.336;2023-02-28T04:58:27;102547.81;;;-4.16;70.99
63663;BME280;49815;51.618;0.336;2023-02-28T05:00:53;102545.31;;;-4.61;73.10
63663;BME280;49815;51.618;0.336;2023-02-28T05:03:19;102545.93;;;-3.82;71.79
63663;BME280;49815;51.618;0.336;2023-02-28T05:05:43;102547.46;;;-4.80;74.47
63663;BME280;49815;51.618;0.336;2023-02-28T05:08:08;102547.44;;;-4.67;75.72
63663;BME280;49815;51.618;0.336;2023-02-28T05:10:34;102548.98;;;-4.94;76.26
63663;BME280;49815;51.618;0.336;2023-02-28T05:13:00;102546.52;;;-4.00;74.08
63663;BME280;49815;51.618;0.336;2023-02-28T05:15:25;102542.80;;;-4.20;72.96
63663;BME280;49815;51.618;0.336;2023-02-28T05:17:50;102537.18;;;-3.35;72.07
63663;BME280;49815;51.618;0.336;2023-02-28T05:20:16;102548.98;;;-4.14;72.34
63663;BME280;49815;51.618;0.336;2023-02-28T05:22:42;102546.05;;;-3.74;72.26
63663;BME280;49815;51.618;0.336;2023-02-28T05:25:09;102556.30;;;-4.06;72.38
63663;BME280;49815;51.618;0.336;2023-02-28T05:27:33;102553.65;;;-4.06;71.28
63663;BME280;49815;51.618;0.336;2023-02-28T05:29:59;102554.92;;;-4.10;72.19
63663;BME280;49815;51.618;0.336;2023-02-28T05:32:24;102551.87;;;-4.36;75.90
63663;BME280;49815;51.618;0.336;2023-02-28T05:34:50;102554.60;;;-3.59;73.15
63663;BME280;49815;51.618;0.336;2023-02-28T05:37:15;102555.05;;;-4.08;74.95
63663;BME280;49815;51.618;0.336;2023-02-28T05:39:41;102555.37;;;-4.23;76.55
63663;BME280;49815;51.618;0.336;2023-02-28T05:42:07;102554.94;;;-3.94;75.17
63663;BME280;49815;51.618;0.336;2023-02-28T05:44:33;102557.87;;;-4.06;75.70
63663;BME280;49815;51.618;0.336;2023-02-28T05:46:58;102562.66;;;-4.58;75.59
63663;BME280;49815;51.618;0.336;2023-02-28T05:49:24;102567.62;;;-4.26;75.70
63663;BME280;49815;51.618;0.336;2023-02-28T05:51:50;102568.17;;;-4.27;74.19
63663;BME280;49815;51.618;0.336;2023-02-28T05:54:15;102567.34;;;-4.10;74.83
63663;BME280;49815;51.618;0.336;2023-02-28T05:56:41;102568.70;;;-2.96;72.09
63663;BME280;49815;51.618;0.336;2023-02-28T05:59:07;102570.45;;;-2.95;71.15
63663;BME280;49815;51.618;0.336;2023-02-28T06:01:34;102570.34;;;-3.40;73.51
63663;BME280;49815;51.618;0.336;2023-02-28T06:03:58;102571.53;;;-3.61;73.56
63663;BME280;49815;51.618;0.336;2023-02-28T06:06:23;102571.46;;;-3.80;72.46
63663;BME280;49815;51.618;0.336;2023-02-28T06:08:49;102565.53;;;-3.14;71.43
63663;BME280;49815;51.618;0.336;2023-02-28T06:11:15;102565.72;;;-2.73;70.25
63663;BME280;49815;51.618;0.336;2023-02-28T06:13:41;102567.46;;;-2.61;70.90
63663;BME280;49815;51.618;0.336;2023-02-28T06:16:08;102568.22;;;-3.62;71.97
63663;BME280;49815;51.618;0.336;2023-02-28T06:18:32;102567.97;;;-3.86;75.20
63663;BME280;49815;51.618;0.336;2023-02-28T06:20:58;102570.04;;;-3.62;75.67
63663;BME280;49815;51.618;0.336;2023-02-28T06:23:23;102569.39;;;-3.50;75.12
63663;BME280;49815;51.618;0.336;2023-02-28T06:25:49;102570.46;;;-4.05;75.11
63663;BME280;49815;51.618;0.336;2023-02-28T06:28:15;102570.31;;;-3.56;73.85
63663;BME280;49815;51.618;0.336;2023-02-28T06:30:40;102567.30;;;-2.09;69.50
63663;BME280;49815;51.618;0.336;2023-02-28T06:33:06;102569.69;;;-2.62;70.37
63663;BME280;49815;51.618;0.336;2023-02-28T06:35:32;102564.95;;;-3.05;72.05
63663;BME280;49815;51.618;0.336;2023-02-28T06:37:57;102562.44;;;-3.00;72.87
63663;BME280;49815;51.618;0.336;2023-02-28T06:40:23;102561.38;;;-2.91;71.51
63663;BME280;49815;51.618;0.336;2023-02-28T06:42:48;102566.46;;;-3.05;71.32
63663;BME280;49815;51.618;0.336;2023-02-28T06:45:15;102569.80;;;-3.29;73.02
63663;BME280;49815;51.618;0.336;2023-02-28T06:47:41;102568.38;;;-2.46;70.40
63663;BME280;49815;51.618;0.336;2023-02-28T06:50:07;102565.36;;;-3.11;71.48
63663;BME280;49815;51.618;0.336;2023-02-28T06:52:31;102571.28;;;-3.20;71.86
63663;BME280;49815;51.618;0.336;2023-02-28T06:54:56;102575.03;;;-2.90;72.69
63663;BME280;49815;51.618;0.336;2023-02-28T06:57:22;102573.48;;;-2.95;71.66
63663;BME280;49815;51.618;0.336;2023-02-28T06:59:49;102573.47;;;-2.62;71.23
63663;BME280;49815;51.618;0.336;2023-02-28T07:02:13;102572.01;;;-2.53;68.85
63663;BME280;49815;51.618;0.336;2023-02-28T07:04:39;102572.16;;;-1.30;65.82
63663;BME280;49815;51.618;0.336;2023-02-28T07:07:05;102573.99;;;-2.63;69.75
63663;BME280;49815;51.618;0.336;2023-02-28T07:09:30;102567.64;;;-1.03;65.06
63663;BME280;49815;51.618;0.336;2023-02-28T07:11:56;102573.92;;;-2.74;68.75
63663;BME280;49815;51.618;0.336;2023-02-28T07:14:22;102574.89;;;-2.09;67.85
63663;BME280;49815;51.618;0.336;2023-02-28T07:16:47;102577.29;;;-2.50;68.39
63663;BME280;49815;51.618;0.336;2023-02-28T07:19:12;102575.63;;;-1.31;65.30
63663;BME280;49815;51.618;0.336;2023-02-28T07:21:38;102577.30;;;-2.17;67.90
63663;BME280;49815;51.618;0.336;2023-02-28T07:24:03;102580.73;;;-2.72;69.79
63663;BME280;49815;51.618;0.336;2023-02-28T07:26:28;102581.00;;;-2.04;69.83
63663;BME280;49815;51.618;0.336;2023-02-28T07:28:53;102583.54;;;-3.01;72.36
63663;BME280;49815;51.618;0.336;2023-02-28T07:31:19;102580.89;;;-3.06;72.16
63663;BME280;49815;51.618;0.336;2023-02-28T07:33:45;102579.56;;;-2.61;72.40
63663;BME280;49815;51.618;0.336;2023-02-28T07:36:11;102579.27;;;-2.34;71.26
63663;BME280;49815;51.618;0.336;2023-02-28T07:38:36;102575.20;;;-2.42;71.31
63663;BME280;49815;51.618;0.336;2023-02-28T07:41:01;102578.22;;;-2.63;72.43
63663;BME280;49815;51.618;0.336;2023-02-28T07:43:27;102576.05;;;-1.08;66.97
63663;BME280;49815;51.618;0.336;2023-02-28T07:45:53;102572.01;;;-0.86;65.73
63663;BME280;49815;51.618;0.336;2023-02-28T07:48:18;102580.36;;;-2.52;69.75
63663;BME280;49815;51.618;0.336;2023-02-28T07:50:44;102584.84;;;-2.24;70.09
63663;BME280;49815;51.618;0.336;2023-02-28T07:53:10;102579.92;;;-1.16;66.85
63663;BME280;49815;51.618;0.336;2023-02-28T07:55:35;102579.29;;;-1.46;68.76
63663;BME280;49815;51.618;0.336;2023-02-28T07:58:01;102581.27;;;-1.69;68.63
63663;BME280;49815;51.618;0.336;2023-02-28T08:00:27;102584.29;;;-1.86;71.25
63663;BME280;49815;51.618;0.336;2023-02-28T08:02:52;102585.00;;;-1.51;69.90
63663;BME280;49815;51.618;0.336;2023-02-28T08:05:18;102582.48;;;-1.48;68.90
63663;BME280;49815;51.618;0.336;2023-02-28T08:07:44;102579.07;;;-1.91;70.83
63663;BME280;49815;51.618;0.336;2023-02-28T08:10:10;102586.68;;;-2.31;71.09
63663;BME280;49815;51.618;0.336;2023-02-28T08:12:36;102584.22;;;-1.74;70.41
63663;BME280;49815;51.618;0.336;2023-02-28T08:15:01;102586.81;;;-1.88;70.25
63663;BME280;49815;51.618;0.336;2023-02-28T08:17:27;102581.63;;;-1.35;68.64
63663;BME280;49815;51.618;0.336;2023-02-28T08:19:53;102579.00;;;-0.19;65.69
63663;BME280;49815;51.618;0.336;2023-02-28T08:22:18;102576.43;;;-0.19;64.64
63663;BME280;49815;51.618;0.336;2023-02-28T08:24:44;102580.12;;;-0.64;64.41
63663;BME280;49815;51.618;0.336;2023-02-28T08:27:10;102570.40;;;0.66;63.06
63663;BME280;49815;51.618;0.336;2023-02-28T08:29:36;102571.55;;;0.43;64.21
63663;BME280;49815;51.618;0.336;2023-02-28T08:32:01;102580.76;;;-1.14;67.59
63663;BME280;49815;51.618;0.336;2023-02-28T08:34:27;102583.16;;;-1.71;69.97
63663;BME280;49815;51.618;0.336;2023-02-28T08:36:52;102569.71;;;-0.51;66.64
63663;BME280;49815;51.618;0.336;2023-02-28T08:39:18;102565.70;;;-0.80;67.07
63663;BME280;49815;51.618;0.336;2023-02-28T08:41:44;102574.03;;;-1.43;69.40
63663;BME280;49815;51.618;0.336;2023-02-28T08:44:10;102569.53;;;-0.89;68.16
63663;BME280;49815;51.618;0.336;2023-02-28T08:46:35;102568.64;;;-1.00;68.93
63663;BME280;49815;51.618;0.336;2023-02-28T08:49:02;102569.67;;;0.09;66.56
63663;BME280;49815;51.618;0.336;2023-02-28T08:51:28;102563.25;;;0.40;65.41
63663;BME280;49815;51.618;0.336;2023-02-28T08:53:53;102574.04;;;-0.95;69.50
63663;BME280;49815;51.618;0.336;2023-02-28T08:56:18;102566.01;;;-0.11;67.68
63663;BME280;49815;51.618;0.336;2023-02-28T08:58:44;102568.75;;;-0.34;67.55
63663;BME280;49815;51.618;0.336;2023-02-28T09:01:11;102570.53;;;-0.65;68.09
63663;BME280;49815;51.618;0.336;2023-02-28T09:03:35;102569.85;;;0.02;65.47
63663;BME280;49815;51.618;0.336;2023-02-28T09:06:01;102574.43;;;0.50;64.63
63663;BME280;49815;51.618;0.336;2023-02-28T09:08:28;102573.74;;;0.17;65.04
63663;BME280;49815;51.618;0.336;2023-02-28T09:10:52;102571.79;;;1.12;62.36
63663;BME280;49815;51.618;0.336;2023-02-28T09:13:18;102571.79;;;-0.54;66.77
63663;BME280;49815;51.618;0.336;2023-02-28T09:15:43;102570.55;;;0.36;65.02
63663;BME280;49815;51.618;0.336;2023-02-28T09:18:09;102571.40;;;0.97;62.90
63663;BME280;49815;51.618;0.336;2023-02-28T09:20:37;102578.79;;;0.23;62.96
63663;BME280;49815;51.618;0.336;2023-02-28T09:23:00;102581.81;;;-0.12;65.49
63663;BME280;49815;51.618;0.336;2023-02-28T09:25:25;102574.80;;;-0.27;66.25
63663;BME280;49815;51.618;0.336;2023-02-28T09:27:51;102567.12;;;0.25;64.67
63663;BME280;49815;51.618;0.336;2023-02-28T09:30:17;102565.61;;;1.39;62.20
63663;BME280;49815;51.618;0.336;2023-02-28T09:32:42;102564.11;;;1.08;62.43
63663;BME280;49815;51.618;0.336;2023-02-28T09:35:09;102569.43;;;-0.01;64.76
63663;BME280;49815;51.618;0.336;2023-02-28T09:37:33;102561.66;;;1.66;60.91
63663;BME280;49815;51.618;0.336;2023-02-28T09:39:59;102563.56;;;1.64;60.62
63663;BME280;49815;51.618;0.336;2023-02-28T09:42:30;102561.14;;;1.49;61.22
63663;BME280;49815;51.618;0.336;2023-02-28T09:44:51;102565.52;;;-0.27;64.50
63663;BME280;49815;51.618;0.336;2023-02-28T09:47:21;102562.39;;;1.08;63.14
63663;BME280;49815;51.618;0.336;2023-02-28T09:49:45;102561.07;;;1.12;62.28
63663;BME280;49815;51.618;0.336;2023-02-28T09:52:12;102565.22;;;-0.47;68.57
63663;BME280;49815;51.618;0.336;2023-02-28T09:54:33;102559.02;;;0.29;66.24
63663;BME280;49815;51.618;0.336;2023-02-28T09:57:04;102557.92;;;1.72;62.26
63663;BME280;49815;51.618;0.336;2023-02-28T09:59:34;102559.70;;;0.45;64.05
63663;BME280;49815;51.618;0.336;2023-02-28T10:01:56;102556.12;;;1.28;62.84
63663;BME280;49815;51.618;0.336;2023-02-28T10:04:27;102554.39;;;1.23;62.63
63663;BME280;49815;51.618;0.336;2023-02-28T10:06:45;102557.75;;;0.32;66.31
63663;BME280;49815;51.618;0.336;2023-02-28T10:09:10;102555.61;;;0.93;63.99
63663;BME280;49815;51.618;0.336;2023-02-28T10:11:33;102555.35;;;1.42;62.62
63663;BME280;49815;51.618;0.336;2023-02-28T10:14:01;102554.17;;;0.77;64.86
63663;BME280;49815;51.618;0.336;2023-02-28T10:16:28;102553.46;;;0.76;62.72
63663;BME280;49815;51.618;0.336;2023-02-28T10:18:54;102553.61;;;1.39;62.79
63663;BME280;49815;51.618;0.336;2023-02-28T10:21:21;102549.73;;;1.09;63.86
63663;BME280;49815;51.618;0.336;2023-02-28T10:23:41;102551.69;;;0.34;66.48
63663;BME280;49815;51.618;0.336;2023-02-28T10:26:11;102545.38;;;0.40;66.25
63663;BME280;49815;51.618;0.336;2023-02-28T10:28:32;102543.72;;;0.92;64.42
63663;BME280;49815;51.618;0.336;2023-02-28T10:30:58;102544.50;;;0.55;66.20
63663;BME280;49815;51.618;0.336;2023-02-28T10:33:25;102541.96;;;0.04;69.02
63663;BME280;49815;51.618;0.336;2023-02-28T10:35:49;102538.47;;;1.70;64.93
63663;BME280;49815;51.618;0.336;2023-02-28T10:38:18;102540.67;;;0.19;68.65
63663;BME280;49815;51.618;0.336;2023-02-28T10:40:40;102538.19;;;0.74;68.02
63663;BME280;49815;51.618;0.336;2023-02-28T10:45:33;102533.52;;;0.38;69.00
63663;BME280;49815;51.618;0.336;2023-02-28T10:47:59;102532.37;;;0.78;67.44
63663;BME280;49815;51.618;0.336;2023-02-28T10:50:34;102531.06;;;1.00;68.77
63663;BME280;49815;51.618;0.336;2023-02-28T10:52:48;102529.43;;;0.58;67.99
63663;BME280;49815;51.618;0.336;2023-02-28T10:55:19;102525.63;;;0.24;69.78
63663;BME280;49815;51.618;0.336;2023-02-28T10:57:39;102520.46;;;0.73;68.08
63663;BME280;49815;51.618;0.336;2023-02-28T11:00:14;102514.30;;;0.55;68.29
63663;BME280;49815;51.618;0.336;2023-02-28T11:02:33;102512.96;;;-0.36;72.87
63663;BME280;49815;51.618;0.336;2023-02-28T11:04:57;102489.40;;;0.36;73.61
63663;BME280;49815;51.618;0.336;2023-02-28T11:07:23;102472.16;;;1.70;68.65
63663;BME280;49815;51.618;0.336;2023-02-28T11:09:50;102481.42;;;0.30;71.85
63663;BME280;49815;51.618;0.336;2023-02-28T11:12:20;102496.03;;;0.58;71.02
63663;BME280;49815;51.618;0.336;2023-02-28T11:14:47;102505.35;;;1.52;66.49
63663;BME280;49815;51.618;0.336;2023-02-28T11:17:13;102515.87;;;0.24;69.34
63663;BME280;49815;51.618;0.336;2023-02-28T11:19:37;102523.15;;;0.61;71.52
63663;BME280;49815;51.618;0.336;2023-02-28T11:21:59;102524.37;;;1.14;67.77
63663;BME280;49815;51.618;0.336;2023-02-28T11:24:24;102528.83;;;0.59;69.50
63663;BME280;49815;51.618;0.336;2023-02-28T11:26:48;102522.72;;;0.90;68.46
63663;BME280;49815;51.618;0.336;2023-02-28T11:29:19;102526.89;;;0.37;69.86
63663;BME280;49815;51.618;0.336;2023-02-28T11:31:38;102519.72;;;-0.16;72.60
63663;BME280;49815;51.618;0.336;2023-02-28T11:36:31;102504.40;;;0.28;71.57
63663;BME280;49815;51.618;0.336;2023-02-28T11:39:00;102501.89;;;0.34;71.39
63663;BME280;49815;51.618;0.336;2023-02-28T11:41:31;102491.02;;;0.48;71.91
63663;BME280;49815;51.618;0.336;2023-02-28T11:43:59;102480.82;;;0.36;70.51
63663;BME280;49815;51.618;0.336;2023-02-28T11:46:23;102467.20;;;1.20;66.83
63663;BME280;49815;51.618;0.336;2023-02-28T11:48:45;102457.59;;;2.77;64.35
63663;BME280;49815;51.618;0.336;2023-02-28T11:51:14;102460.41;;;2.19;64.62
63663;BME280;49815;51.618;0.336;2023-02-28T11:53:46;102460.93;;;1.66;65.03
63663;BME280;49815;51.618;0.336;2023-02-28T11:55:58;102450.00;;;2.45;63.41
63663;BME280;49815;51.618;0.336;2023-02-28T11:58:30;102449.85;;;1.87;65.70
63663;BME280;49815;51.618;0.336;2023-02-28T12:01:00;102447.32;;;0.99;68.56
63663;BME280;49815;51.618;0.336;2023-02-28T12:03:21;102453.31;;;1.39;68.52
63663;BME280;49815;51.618;0.336;2023-02-28T12:05:41;102462.41;;;1.08;68.51
63663;BME280;49815;51.618;0.336;2023-02-28T12:08:11;102475.48;;;1.61;67.87
63663;BME280;49815;51.618;0.336;2023-02-28T12:10:31;102480.92;;;1.72;67.09
63663;BME280;49815;51.618;0.336;2023-02-28T12:13:03;102478.27;;;2.23;63.62
63663;BME280;49815;51.618;0.336;2023-02-28T12:15:28;102473.10;;;1.54;66.37
63663;BME280;49815;51.618;0.336;2023-02-28T12:17:55;102476.04;;;1.50;65.87
63663;BME280;49815;51.618;0.336;2023-02-28T12:20:21;102469.84;;;1.28;66.34
63663;BME280;49815;51.618;0.336;2023-02-28T12:22:41;102460.89;;;2.36;64.81
63663;BME280;49815;51.618;0.336;2023-02-28T12:25:21;102463.47;;;0.60;69.28
63663;BME280;49815;51.618;0.336;2023-02-28T12:27:31;102457.16;;;0.86;69.78
63663;BME280;49815;51.618;0.336;2023-02-28T12:29:57;102451.00;;;2.05;65.47
63663;BME280;49815;51.618;0.336;2023-02-28T12:32:23;102442.37;;;2.17;64.40
63663;BME280;49815;51.618;0.336;2023-02-28T12:34:49;102434.37;;;0.86;69.55
63663;BME280;49815;51.618;0.336;2023-02-28T12:37:15;102431.44;;;1.41;66.69
63663;BME280;49815;51.618;0.336;2023-02-28T12:39:39;102430.10;;;1.53;66.05
63663;BME280;49815;51.618;0.336;2023-02-28T12:42:05;102417.71;;;3.25;61.24
63663;BME280;49815;51.618;0.336;2023-02-28T12:44:32;102424.20;;;1.53;66.05
63663;BME280;49815;51.618;0.336;2023-02-28T12:46:55;102426.74;;;1.28;68.96
63663;BME280;49815;51.618;0.336;2023-02-28T12:49:23;102422.29;;;1.35;67.83